sensor_id;sensor_type;location;lat;lon;timestamp;P1;durP1;ratioP1;P2;durP2;ratioP2
83465;SDS011;73393;51.946;20.140;2024-01-30T00:01:00;29.37;;;16.53;;
83465;SDS011;73393;51.946;20.140;2024-01-30T00:03:25;31.80;;;17.70;;
83465;SDS011;73393;51.946;20.140;2024-01-30T00:05:51;29.87;;;17.27;;
83465;SDS011;73393;51.946;20.140;2024-01-30T00:08:17;29.73;;;17.20;;
83465;SDS011;73393;51.946;20.140;2024-01-30T00:10:43;31.13;;;18.03;;
83465;SDS011;73393;51.946;20.140;2024-01-30T00:13:08;30.30;;;16.97;;
83465;SDS011;73393;51.946;20.140;2024-01-30T00:15:34;27.67;;;16.20;;
83465;SDS011;73393;51.946;20.140;2024-01-30T00:18:00;29.33;;;16.27;;
83465;SDS011;73393;51.946;20.140;2024-01-30T00:20:26;28.37;;;15.57;;
83465;SDS011;73393;51.946;20.140;2024-01-30T00:22:52;38.87;;;18.47;;
83465;SDS011;73393;51.946;20.140;2024-01-30T00:25:17;32.47;;;17.30;;
83465;SDS011;73393;51.946;20.140;2024-01-30T00:27:43;30.00;;;15.93;;
83465;SDS011;73393;51.946;20.140;2024-01-30T00:30:09;28.13;;;15.17;;
83465;SDS011;73393;51.946;20.140;2024-01-30T00:32:35;24.23;;;15.33;;
83465;SDS011;73393;51.946;20.140;2024-01-30T00:35:00;30.03;;;15.57;;
83465;SDS011;73393;51.946;20.140;2024-01-30T00:37:26;30.60;;;15.33;;
83465;SDS011;73393;51.946;20.140;2024-01-30T00:39:51;26.67;;;15.37;;
83465;SDS011;73393;51.946;20.140;2024-01-30T00:42:17;29.97;;;17.30;;
83465;SDS011;73393;51.946;20.140;2024-01-30T00:44:42;30.03;;;16.17;;
83465;SDS011;73393;51.946;20.140;2024-01-30T00:47:08;31.10;;;18.20;;
83465;SDS011;73393;51.946;20.140;2024-01-30T00:49:34;32.43;;;16.90;;
83465;SDS011;73393;51.946;20.140;2024-01-30T00:52:00;30.13;;;15.53;;
83465;SDS011;73393;51.946;20.140;2024-01-30T00:54:26;25.70;;;14.90;;
83465;SDS011;73393;51.946;20.140;2024-01-30T00:56:51;27.07;;;15.10;;
83465;SDS011;73393;51.946;20.140;2024-01-30T00:59:17;29.00;;;13.43;;
83465;SDS011;73393;51.946;20.140;2024-01-30T01:01:43;30.17;;;15.37;;
83465;SDS011;73393;51.946;20.140;2024-01-30T01:04:08;27.57;;;15.37;;
83465;SDS011;73393;51.946;20.140;2024-01-30T01:06:34;28.00;;;16.47;;
83465;SDS011;73393;51.946;20.140;2024-01-30T01:08:59;26.47;;;13.37;;
83465;SDS011;73393;51.946;20.140;2024-01-30T01:11:25;26.10;;;15.90;;
83465;SDS011;73393;51.946;20.140;2024-01-30T01:13:50;25.00;;;14.70;;
83465;SDS011;73393;51.946;20.140;2024-01-30T01:16:16;25.43;;;13.90;;
83465;SDS011;73393;51.946;20.140;2024-01-30T01:18:41;24.43;;;14.73;;
83465;SDS011;73393;51.946;20.140;2024-01-30T01:21:07;29.37;;;15.23;;
83465;SDS011;73393;51.946;20.140;2024-01-30T01:23:33;27.73;;;14.17;;
83465;SDS011;73393;51.946;20.140;2024-01-30T01:25:58;24.90;;;14.40;;
83465;SDS011;73393;51.946;20.140;2024-01-30T01:28:25;28.10;;;14.53;;
83465;SDS011;73393;51.946;20.140;2024-01-30T01:30:52;28.03;;;14.63;;
83465;SDS011;73393;51.946;20.140;2024-01-30T01:33:17;27.60;;;14.57;;
83465;SDS011;73393;51.946;20.140;2024-01-30T01:35:43;27.40;;;14.67;;
83465;SDS011;73393;51.946;20.140;2024-01-30T01:38:08;25.30;;;14.73;;
83465;SDS011;73393;51.946;20.140;2024-01-30T01:40:34;27.00;;;14.57;;
83465;SDS011;73393;51.946;20.140;2024-01-30T01:43:02;22.83;;;14.00;;
83465;SDS011;73393;51.946;20.140;2024-01-30T01:45:29;30.47;;;15.43;;
83465;SDS011;73393;51.946;20.140;2024-01-30T01:47:54;31.27;;;16.53;;
83465;SDS011;73393;51.946;20.140;2024-01-30T01:50:20;26.73;;;14.20;;
83465;SDS011;73393;51.946;20.140;2024-01-30T01:52:50;28.10;;;14.30;;
83465;SDS011;73393;51.946;20.140;2024-01-30T01:55:17;24.83;;;12.37;;
83465;SDS011;73393;51.946;20.140;2024-01-30T01:57:46;25.50;;;14.07;;
83465;SDS011;73393;51.946;20.140;2024-01-30T02:00:12;27.20;;;15.93;;
83465;SDS011;73393;51.946;20.140;2024-01-30T02:02:38;36.50;;;16.83;;
83465;SDS011;73393;51.946;20.140;2024-01-30T02:05:04;24.87;;;14.73;;
83465;SDS011;73393;51.946;20.140;2024-01-30T02:07:30;24.80;;;14.73;;
83465;SDS011;73393;51.946;20.140;2024-01-30T02:09:56;25.17;;;14.00;;
83465;SDS011;73393;51.946;20.140;2024-01-30T02:12:22;24.47;;;13.77;;
83465;SDS011;73393;51.946;20.140;2024-01-30T02:14:48;27.07;;;13.53;;
83465;SDS011;73393;51.946;20.140;2024-01-30T02:17:15;26.93;;;12.60;;
83465;SDS011;73393;51.946;20.140;2024-01-30T02:19:41;23.93;;;14.27;;
83465;SDS011;73393;51.946;20.140;2024-01-30T02:22:06;22.03;;;12.93;;
83465;SDS011;73393;51.946;20.140;2024-01-30T02:24:32;35.80;;;20.93;;
83465;SDS011;73393;51.946;20.140;2024-01-30T02:26:58;57.23;;;35.67;;
83465;SDS011;73393;51.946;20.140;2024-01-30T02:29:24;39.33;;;21.03;;
83465;SDS011;73393;51.946;20.140;2024-01-30T02:31:50;32.17;;;17.03;;
83465;SDS011;73393;51.946;20.140;2024-01-30T02:34:17;28.67;;;15.47;;
83465;SDS011;73393;51.946;20.140;2024-01-30T02:36:44;30.80;;;15.67;;
83465;SDS011;73393;51.946;20.140;2024-01-30T02:39:10;27.93;;;14.03;;
83465;SDS011;73393;51.946;20.140;2024-01-30T02:41:36;24.63;;;13.87;;
83465;SDS011;73393;51.946;20.140;2024-01-30T02:44:02;27.57;;;14.23;;
83465;SDS011;73393;51.946;20.140;2024-01-30T02:46:28;28.13;;;13.30;;
83465;SDS011;73393;51.946;20.140;2024-01-30T02:48:53;26.03;;;13.00;;
83465;SDS011;73393;51.946;20.140;2024-01-30T02:51:19;24.43;;;13.33;;
83465;SDS011;73393;51.946;20.140;2024-01-30T02:53:45;26.00;;;14.03;;
83465;SDS011;73393;51.946;20.140;2024-01-30T02:56:10;24.27;;;12.27;;
83465;SDS011;73393;51.946;20.140;2024-01-30T02:58:37;19.80;;;11.53;;
83465;SDS011;73393;51.946;20.140;2024-01-30T03:01:02;23.70;;;11.83;;
83465;SDS011;73393;51.946;20.140;2024-01-30T03:03:28;23.03;;;12.40;;
83465;SDS011;73393;51.946;20.140;2024-01-30T03:05:54;27.17;;;14.43;;
83465;SDS011;73393;51.946;20.140;2024-01-30T03:08:19;26.83;;;14.23;;
83465;SDS011;73393;51.946;20.140;2024-01-30T03:10:45;25.80;;;12.17;;
83465;SDS011;73393;51.946;20.140;2024-01-30T03:13:11;21.37;;;11.70;;
83465;SDS011;73393;51.946;20.140;2024-01-30T03:15:36;23.83;;;11.43;;
83465;SDS011;73393;51.946;20.140;2024-01-30T03:18:02;22.47;;;11.43;;
83465;SDS011;73393;51.946;20.140;2024-01-30T03:20:31;22.60;;;11.90;;
83465;SDS011;73393;51.946;20.140;2024-01-30T03:22:57;20.90;;;11.33;;
83465;SDS011;73393;51.946;20.140;2024-01-30T03:25:24;23.13;;;12.60;;
83465;SDS011;73393;51.946;20.140;2024-01-30T03:27:51;25.00;;;12.30;;
83465;SDS011;73393;51.946;20.140;2024-01-30T03:30:17;22.80;;;13.03;;
83465;SDS011;73393;51.946;20.140;2024-01-30T03:32:43;22.77;;;13.00;;
83465;SDS011;73393;51.946;20.140;2024-01-30T03:35:09;24.57;;;13.07;;
83465;SDS011;73393;51.946;20.140;2024-01-30T03:37:34;20.73;;;12.27;;
83465;SDS011;73393;51.946;20.140;2024-01-30T03:40:01;21.40;;;11.37;;
83465;SDS011;73393;51.946;20.140;2024-01-30T03:42:28;20.53;;;11.27;;
83465;SDS011;73393;51.946;20.140;2024-01-30T03:44:53;23.73;;;12.70;;
83465;SDS011;73393;51.946;20.140;2024-01-30T03:47:20;22.70;;;12.67;;
83465;SDS011;73393;51.946;20.140;2024-01-30T03:49:46;23.57;;;12.40;;
83465;SDS011;73393;51.946;20.140;2024-01-30T03:52:12;23.23;;;10.23;;
83465;SDS011;73393;51.946;20.140;2024-01-30T03:54:37;17.37;;;10.53;;
83465;SDS011;73393;51.946;20.140;2024-01-30T03:57:03;22.23;;;10.80;;
83465;SDS011;73393;51.946;20.140;2024-01-30T03:59:29;19.00;;;10.23;;
83465;SDS011;73393;51.946;20.140;2024-01-30T04:01:54;18.37;;;9.27;;
83465;SDS011;73393;51.946;20.140;2024-01-30T04:04:20;20.03;;;9.90;;
83465;SDS011;73393;51.946;20.140;2024-01-30T04:06:46;14.57;;;9.77;;
83465;SDS011;73393;51.946;20.140;2024-01-30T04:09:12;20.03;;;9.20;;
83465;SDS011;73393;51.946;20.140;2024-01-30T04:11:38;22.60;;;10.13;;
83465;SDS011;73393;51.946;20.140;2024-01-30T04:14:04;17.30;;;9.53;;
83465;SDS011;73393;51.946;20.140;2024-01-30T04:16:30;17.43;;;9.40;;
83465;SDS011;73393;51.946;20.140;2024-01-30T04:18:55;17.07;;;8.77;;
83465;SDS011;73393;51.946;20.140;2024-01-30T04:21:21;18.03;;;9.43;;
83465;SDS011;73393;51.946;20.140;2024-01-30T04:23:47;18.07;;;9.57;;
83465;SDS011;73393;51.946;20.140;2024-01-30T04:26:13;16.77;;;8.73;;
83465;SDS011;73393;51.946;20.140;2024-01-30T04:28:41;17.67;;;10.87;;
83465;SDS011;73393;51.946;20.140;2024-01-30T04:31:07;17.17;;;10.27;;
83465;SDS011;73393;51.946;20.140;2024-01-30T04:33:32;16.03;;;9.23;;
83465;SDS011;73393;51.946;20.140;2024-01-30T04:35:58;15.10;;;8.60;;
83465;SDS011;73393;51.946;20.140;2024-01-30T04:38:23;18.07;;;10.10;;
83465;SDS011;73393;51.946;20.140;2024-01-30T04:40:49;16.83;;;9.13;;
83465;SDS011;73393;51.946;20.140;2024-01-30T04:43:14;16.73;;;8.03;;
83465;SDS011;73393;51.946;20.140;2024-01-30T04:45:40;19.37;;;9.80;;
83465;SDS011;73393;51.946;20.140;2024-01-30T04:48:06;19.03;;;10.20;;
83465;SDS011;73393;51.946;20.140;2024-01-30T04:50:32;16.83;;;7.37;;
83465;SDS011;73393;51.946;20.140;2024-01-30T04:52:58;19.20;;;8.87;;
83465;SDS011;73393;51.946;20.140;2024-01-30T04:55:23;17.00;;;9.37;;
83465;SDS011;73393;51.946;20.140;2024-01-30T04:57:49;15.47;;;8.50;;
83465;SDS011;73393;51.946;20.140;2024-01-30T05:00:15;15.97;;;9.67;;
83465;SDS011;73393;51.946;20.140;2024-01-30T05:02:40;13.97;;;7.70;;
83465;SDS011;73393;51.946;20.140;2024-01-30T05:05:06;14.57;;;8.50;;
83465;SDS011;73393;51.946;20.140;2024-01-30T05:07:32;14.67;;;9.07;;
83465;SDS011;73393;51.946;20.140;2024-01-30T05:09:59;17.63;;;9.53;;
83465;SDS011;73393;51.946;20.140;2024-01-30T05:12:25;20.03;;;9.57;;
83465;SDS011;73393;51.946;20.140;2024-01-30T05:14:51;16.27;;;9.10;;
83465;SDS011;73393;51.946;20.140;2024-01-30T05:17:16;20.73;;;10.03;;
83465;SDS011;73393;51.946;20.140;2024-01-30T05:19:43;21.57;;;10.63;;
83465;SDS011;73393;51.946;20.140;2024-01-30T05:22:09;16.03;;;8.67;;
83465;SDS011;73393;51.946;20.140;2024-01-30T05:24:35;17.20;;;9.07;;
83465;SDS011;73393;51.946;20.140;2024-01-30T05:27:01;18.97;;;8.87;;
83465;SDS011;73393;51.946;20.140;2024-01-30T05:29:27;18.10;;;9.00;;
83465;SDS011;73393;51.946;20.140;2024-01-30T05:31:53;18.63;;;8.70;;
83465;SDS011;73393;51.946;20.140;2024-01-30T05:34:18;17.90;;;7.63;;
83465;SDS011;73393;51.946;20.140;2024-01-30T05:36:44;16.70;;;10.10;;
83465;SDS011;73393;51.946;20.140;2024-01-30T05:39:09;22.40;;;10.80;;
83465;SDS011;73393;51.946;20.140;2024-01-30T05:41:35;23.63;;;12.27;;
83465;SDS011;73393;51.946;20.140;2024-01-30T05:44:01;26.87;;;13.20;;
83465;SDS011;73393;51.946;20.140;2024-01-30T05:46:26;23.23;;;12.77;;
83465;SDS011;73393;51.946;20.140;2024-01-30T05:48:52;22.17;;;11.93;;
83465;SDS011;73393;51.946;20.140;2024-01-30T05:51:18;22.80;;;13.23;;
83465;SDS011;73393;51.946;20.140;2024-01-30T05:53:43;26.63;;;15.03;;
83465;SDS011;73393;51.946;20.140;2024-01-30T05:56:09;45.37;;;23.53;;
83465;SDS011;73393;51.946;20.140;2024-01-30T05:58:35;57.07;;;28.40;;
83465;SDS011;73393;51.946;20.140;2024-01-30T06:01:02;48.97;;;26.00;;
83465;SDS011;73393;51.946;20.140;2024-01-30T06:03:28;40.07;;;22.23;;
83465;SDS011;73393;51.946;20.140;2024-01-30T06:05:53;38.70;;;17.40;;
83465;SDS011;73393;51.946;20.140;2024-01-30T06:08:19;36.27;;;18.40;;
83465;SDS011;73393;51.946;20.140;2024-01-30T06:10:45;29.33;;;15.73;;
83465;SDS011;73393;51.946;20.140;2024-01-30T06:13:10;44.00;;;20.67;;
83465;SDS011;73393;51.946;20.140;2024-01-30T06:15:36;52.33;;;27.63;;
83465;SDS011;73393;51.946;20.140;2024-01-30T06:18:02;47.70;;;25.27;;
83465;SDS011;73393;51.946;20.140;2024-01-30T06:20:27;45.40;;;21.93;;
83465;SDS011;73393;51.946;20.140;2024-01-30T06:22:53;45.33;;;23.73;;
83465;SDS011;73393;51.946;20.140;2024-01-30T06:25:18;39.30;;;18.63;;
83465;SDS011;73393;51.946;20.140;2024-01-30T06:27:44;29.67;;;16.00;;
83465;SDS011;73393;51.946;20.140;2024-01-30T06:30:10;35.67;;;19.07;;
83465;SDS011;73393;51.946;20.140;2024-01-30T06:32:36;32.23;;;16.97;;
83465;SDS011;73393;51.946;20.140;2024-01-30T06:35:02;46.60;;;23.90;;
83465;SDS011;73393;51.946;20.140;2024-01-30T06:37:28;40.30;;;20.40;;
83465;SDS011;73393;51.946;20.140;2024-01-30T06:39:53;31.13;;;14.13;;
83465;SDS011;73393;51.946;20.140;2024-01-30T06:42:19;25.43;;;13.23;;
83465;SDS011;73393;51.946;20.140;2024-01-30T06:44:44;28.50;;;14.70;;
83465;SDS011;73393;51.946;20.140;2024-01-30T06:47:10;24.23;;;13.00;;
83465;SDS011;73393;51.946;20.140;2024-01-30T06:49:36;24.33;;;11.57;;
83465;SDS011;73393;51.946;20.140;2024-01-30T06:52:05;35.00;;;16.33;;
83465;SDS011;73393;51.946;20.140;2024-01-30T06:54:31;29.83;;;16.00;;
83465;SDS011;73393;51.946;20.140;2024-01-30T06:56:57;26.57;;;14.23;;
83465;SDS011;73393;51.946;20.140;2024-01-30T06:59:23;20.13;;;13.50;;
83465;SDS011;73393;51.946;20.140;2024-01-30T07:01:49;23.30;;;12.90;;
83465;SDS011;73393;51.946;20.140;2024-01-30T07:04:14;23.10;;;13.30;;
83465;SDS011;73393;51.946;20.140;2024-01-30T07:06:41;27.60;;;14.97;;
83465;SDS011;73393;51.946;20.140;2024-01-30T07:09:06;24.53;;;12.67;;
83465;SDS011;73393;51.946;20.140;2024-01-30T07:11:32;25.27;;;12.97;;
83465;SDS011;73393;51.946;20.140;2024-01-30T07:13:57;22.60;;;13.10;;
83465;SDS011;73393;51.946;20.140;2024-01-30T07:16:23;27.23;;;13.83;;
83465;SDS011;73393;51.946;20.140;2024-01-30T07:18:49;21.57;;;13.40;;
83465;SDS011;73393;51.946;20.140;2024-01-30T07:21:15;23.33;;;11.27;;
83465;SDS011;73393;51.946;20.140;2024-01-30T07:23:40;22.70;;;11.53;;
83465;SDS011;73393;51.946;20.140;2024-01-30T07:26:07;19.43;;;10.33;;
83465;SDS011;73393;51.946;20.140;2024-01-30T07:28:33;20.37;;;12.00;;
83465;SDS011;73393;51.946;20.140;2024-01-30T07:30:59;23.53;;;11.20;;
83465;SDS011;73393;51.946;20.140;2024-01-30T07:33:25;19.37;;;11.10;;
83465;SDS011;73393;51.946;20.140;2024-01-30T07:35:54;18.60;;;10.53;;
83465;SDS011;73393;51.946;20.140;2024-01-30T07:38:20;22.50;;;11.40;;
83465;SDS011;73393;51.946;20.140;2024-01-30T07:40:46;20.90;;;11.73;;
83465;SDS011;73393;51.946;20.140;2024-01-30T07:43:13;20.43;;;10.83;;
83465;SDS011;73393;51.946;20.140;2024-01-30T07:45:38;19.70;;;9.93;;
83465;SDS011;73393;51.946;20.140;2024-01-30T07:48:05;18.23;;;9.37;;
83465;SDS011;73393;51.946;20.140;2024-01-30T07:50:31;19.83;;;10.37;;
83465;SDS011;73393;51.946;20.140;2024-01-30T07:52:57;18.87;;;10.03;;
83465;SDS011;73393;51.946;20.140;2024-01-30T07:58:24;16.70;;;9.17;;
83465;SDS011;73393;51.946;20.140;2024-01-30T08:00:52;13.73;;;8.30;;
83465;SDS011;73393;51.946;20.140;2024-01-30T08:03:18;17.13;;;8.07;;
83465;SDS011;73393;51.946;20.140;2024-01-30T08:05:44;23.90;;;10.57;;
83465;SDS011;73393;51.946;20.140;2024-01-30T08:08:09;14.47;;;8.47;;
83465;SDS011;73393;51.946;20.140;2024-01-30T08:10:35;16.07;;;9.87;;
83465;SDS011;73393;51.946;20.140;2024-01-30T08:13:01;23.93;;;9.60;;
83465;SDS011;73393;51.946;20.140;2024-01-30T08:15:27;14.57;;;8.50;;
83465;SDS011;73393;51.946;20.140;2024-01-30T08:17:52;18.73;;;8.83;;
83465;SDS011;73393;51.946;20.140;2024-01-30T08:20:22;15.63;;;10.13;;
83465;SDS011;73393;51.946;20.140;2024-01-30T08:22:48;17.30;;;8.73;;
83465;SDS011;73393;51.946;20.140;2024-01-30T08:25:14;13.77;;;8.30;;
83465;SDS011;73393;51.946;20.140;2024-01-30T08:27:40;22.83;;;8.50;;
83465;SDS011;73393;51.946;20.140;2024-01-30T08:30:06;15.80;;;9.83;;
83465;SDS011;73393;51.946;20.140;2024-01-30T08:32:33;28.37;;;15.63;;
83465;SDS011;73393;51.946;20.140;2024-01-30T08:34:59;21.10;;;12.50;;
83465;SDS011;73393;51.946;20.140;2024-01-30T08:37:28;29.93;;;15.07;;
83465;SDS011;73393;51.946;20.140;2024-01-30T08:39:54;29.03;;;15.33;;
83465;SDS011;73393;51.946;20.140;2024-01-30T08:42:20;28.97;;;17.10;;
83465;SDS011;73393;51.946;20.140;2024-01-30T08:44:47;17.27;;;10.30;;
83465;SDS011;73393;51.946;20.140;2024-01-30T08:47:18;20.97;;;11.37;;
83465;SDS011;73393;51.946;20.140;2024-01-30T08:49:44;14.70;;;9.50;;
83465;SDS011;73393;51.946;20.140;2024-01-30T08:52:10;15.87;;;10.13;;
83465;SDS011;73393;51.946;20.140;2024-01-30T08:54:36;14.17;;;8.03;;
83465;SDS011;73393;51.946;20.140;2024-01-30T08:57:01;17.47;;;9.13;;
83465;SDS011;73393;51.946;20.140;2024-01-30T08:59:27;16.47;;;7.67;;
83465;SDS011;73393;51.946;20.140;2024-01-30T09:01:53;15.23;;;9.03;;
83465;SDS011;73393;51.946;20.140;2024-01-30T09:04:20;16.70;;;10.03;;
83465;SDS011;73393;51.946;20.140;2024-01-30T09:06:46;18.03;;;8.80;;
83465;SDS011;73393;51.946;20.140;2024-01-30T09:09:12;16.47;;;9.20;;
83465;SDS011;73393;51.946;20.140;2024-01-30T09:11:39;19.93;;;10.07;;
83465;SDS011;73393;51.946;20.140;2024-01-30T09:14:05;22.10;;;12.07;;
83465;SDS011;73393;51.946;20.140;2024-01-30T09:16:31;26.20;;;13.67;;
83465;SDS011;73393;51.946;20.140;2024-01-30T09:18:56;25.10;;;13.63;;
83465;SDS011;73393;51.946;20.140;2024-01-30T09:21:22;20.37;;;11.43;;
83465;SDS011;73393;51.946;20.140;2024-01-30T09:23:48;19.80;;;11.47;;
83465;SDS011;73393;51.946;20.140;2024-01-30T09:26:13;19.23;;;11.83;;
83465;SDS011;73393;51.946;20.140;2024-01-30T09:28:39;24.10;;;11.43;;
83465;SDS011;73393;51.946;20.140;2024-01-30T09:31:10;20.93;;;10.07;;
83465;SDS011;73393;51.946;20.140;2024-01-30T09:33:37;26.93;;;10.33;;
83465;SDS011;73393;51.946;20.140;2024-01-30T09:36:03;17.53;;;9.90;;
83465;SDS011;73393;51.946;20.140;2024-01-30T09:38:28;15.73;;;10.03;;
83465;SDS011;73393;51.946;20.140;2024-01-30T09:40:54;14.00;;;8.43;;
83465;SDS011;73393;51.946;20.140;2024-01-30T09:43:23;14.67;;;8.37;;
83465;SDS011;73393;51.946;20.140;2024-01-30T09:45:51;18.07;;;10.63;;
83465;SDS011;73393;51.946;20.140;2024-01-30T09:48:19;20.07;;;10.20;;
83465;SDS011;73393;51.946;20.140;2024-01-30T09:50:44;18.73;;;9.90;;
83465;SDS011;73393;51.946;20.140;2024-01-30T09:53:11;15.43;;;8.70;;
83465;SDS011;73393;51.946;20.140;2024-01-30T09:55:39;16.50;;;9.47;;
83465;SDS011;73393;51.946;20.140;2024-01-30T09:58:08;16.40;;;8.83;;
83465;SDS011;73393;51.946;20.140;2024-01-30T10:00:33;14.30;;;8.07;;
83465;SDS011;73393;51.946;20.140;2024-01-30T10:02:59;17.90;;;8.53;;
83465;SDS011;73393;51.946;20.140;2024-01-30T10:05:26;13.97;;;8.07;;
83465;SDS011;73393;51.946;20.140;2024-01-30T10:07:53;16.93;;;8.47;;
83465;SDS011;73393;51.946;20.140;2024-01-30T10:10:22;15.90;;;8.53;;
83465;SDS011;73393;51.946;20.140;2024-01-30T10:12:48;12.17;;;7.73;;
83465;SDS011;73393;51.946;20.140;2024-01-30T10:15:14;16.03;;;9.27;;
83465;SDS011;73393;51.946;20.140;2024-01-30T10:17:40;12.10;;;8.40;;
83465;SDS011;73393;51.946;20.140;2024-01-30T10:20:06;16.53;;;10.17;;
83465;SDS011;73393;51.946;20.140;2024-01-30T10:22:32;16.77;;;9.07;;
83465;SDS011;73393;51.946;20.140;2024-01-30T10:24:58;14.83;;;9.80;;
83465;SDS011;73393;51.946;20.140;2024-01-30T10:27:26;15.80;;;8.60;;
83465;SDS011;73393;51.946;20.140;2024-01-30T10:29:52;17.83;;;9.30;;
83465;SDS011;73393;51.946;20.140;2024-01-30T10:32:17;18.47;;;8.60;;
83465;SDS011;73393;51.946;20.140;2024-01-30T10:34:44;13.23;;;7.10;;
83465;SDS011;73393;51.946;20.140;2024-01-30T10:37:10;19.90;;;9.63;;
83465;SDS011;73393;51.946;20.140;2024-01-30T10:39:38;17.50;;;11.43;;
83465;SDS011;73393;51.946;20.140;2024-01-30T10:42:05;16.53;;;8.60;;
83465;SDS011;73393;51.946;20.140;2024-01-30T10:45:17;18.80;;;9.83;;
83465;SDS011;73393;51.946;20.140;2024-01-30T10:47:21;23.50;;;11.43;;
83465;SDS011;73393;51.946;20.140;2024-01-30T10:49:54;19.67;;;10.37;;
83465;SDS011;73393;51.946;20.140;2024-01-30T10:52:20;13.63;;;8.20;;
83465;SDS011;73393;51.946;20.140;2024-01-30T10:54:47;17.83;;;9.73;;
83465;SDS011;73393;51.946;20.140;2024-01-30T10:57:16;15.70;;;8.57;;
83465;SDS011;73393;51.946;20.140;2024-01-30T10:59:42;12.53;;;8.23;;
83465;SDS011;73393;51.946;20.140;2024-01-30T11:02:10;14.83;;;8.30;;
83465;SDS011;73393;51.946;20.140;2024-01-30T11:04:42;17.27;;;8.53;;
83465;SDS011;73393;51.946;20.140;2024-01-30T11:07:17;17.13;;;9.40;;
83465;SDS011;73393;51.946;20.140;2024-01-30T11:09:50;18.83;;;8.63;;
83465;SDS011;73393;51.946;20.140;2024-01-30T11:12:16;14.20;;;8.07;;
83465;SDS011;73393;51.946;20.140;2024-01-30T11:14:46;16.13;;;7.67;;
83465;SDS011;73393;51.946;20.140;2024-01-30T11:17:13;14.10;;;7.77;;
83465;SDS011;73393;51.946;20.140;2024-01-30T11:19:38;13.63;;;7.70;;
83465;SDS011;73393;51.946;20.140;2024-01-30T11:22:06;16.27;;;9.63;;
83465;SDS011;73393;51.946;20.140;2024-01-30T11:24:36;17.57;;;10.27;;
83465;SDS011;73393;51.946;20.140;2024-01-30T11:27:07;13.70;;;8.07;;
83465;SDS011;73393;51.946;20.140;2024-01-30T11:29:34;14.97;;;8.40;;
83465;SDS011;73393;51.946;20.140;2024-01-30T11:32:00;18.20;;;8.07;;
83465;SDS011;73393;51.946;20.140;2024-01-30T11:34:25;17.00;;;9.47;;
83465;SDS011;73393;51.946;20.140;2024-01-30T11:37:12;15.77;;;8.17;;
83465;SDS011;73393;51.946;20.140;2024-01-30T11:39:38;13.90;;;7.63;;
83465;SDS011;73393;51.946;20.140;2024-01-30T11:42:06;10.87;;;7.33;;
83465;SDS011;73393;51.946;20.140;2024-01-30T11:44:33;15.50;;;9.20;;
83465;SDS011;73393;51.946;20.140;2024-01-30T11:47:00;14.93;;;8.60;;
83465;SDS011;73393;51.946;20.140;2024-01-30T11:49:28;14.87;;;7.97;;
83465;SDS011;73393;51.946;20.140;2024-01-30T11:51:54;14.97;;;8.43;;
83465;SDS011;73393;51.946;20.140;2024-01-30T11:54:19;15.77;;;10.27;;
83465;SDS011;73393;51.946;20.140;2024-01-30T11:56:45;17.80;;;10.10;;
83465;SDS011;73393;51.946;20.140;2024-01-30T11:59:11;14.37;;;8.17;;
83465;SDS011;73393;51.946;20.140;2024-01-30T12:01:36;16.07;;;7.40;;
83465;SDS011;73393;51.946;20.140;2024-01-30T12:04:02;17.00;;;9.20;;
83465;SDS011;73393;51.946;20.140;2024-01-30T12:06:28;12.20;;;8.63;;
83465;SDS011;73393;51.946;20.140;2024-01-30T12:09:00;14.87;;;8.60;;
83465;SDS011;73393;51.946;20.140;2024-01-30T12:11:29;12.30;;;7.10;;
83465;SDS011;73393;51.946;20.140;2024-01-30T12:13:55;11.87;;;7.73;;
83465;SDS011;73393;51.946;20.140;2024-01-30T12:16:21;12.87;;;7.43;;
83465;SDS011;73393;51.946;20.140;2024-01-30T12:18:48;15.50;;;8.00;;
83465;SDS011;73393;51.946;20.140;2024-01-30T12:21:16;13.93;;;8.80;;
83465;SDS011;73393;51.946;20.140;2024-01-30T12:23:42;13.80;;;8.20;;
83465;SDS011;73393;51.946;20.140;2024-01-30T12:26:08;12.63;;;7.23;;
83465;SDS011;73393;51.946;20.140;2024-01-30T12:28:36;13.70;;;7.30;;
83465;SDS011;73393;51.946;20.140;2024-01-30T12:31:02;13.27;;;7.43;;
83465;SDS011;73393;51.946;20.140;2024-01-30T12:33:28;10.63;;;6.47;;
83465;SDS011;73393;51.946;20.140;2024-01-30T12:35:55;11.60;;;6.90;;
83465;SDS011;73393;51.946;20.140;2024-01-30T12:38:30;9.90;;;6.93;;
83465;SDS011;73393;51.946;20.140;2024-01-30T12:40:55;11.73;;;7.23;;
83465;SDS011;73393;51.946;20.140;2024-01-30T12:43:22;11.90;;;6.23;;
83465;SDS011;73393;51.946;20.140;2024-01-30T12:45:48;12.63;;;6.77;;
83465;SDS011;73393;51.946;20.140;2024-01-30T12:48:15;11.50;;;7.63;;
83465;SDS011;73393;51.946;20.140;2024-01-30T12:50:41;10.57;;;6.53;;
83465;SDS011;73393;51.946;20.140;2024-01-30T12:53:07;12.07;;;6.93;;
83465;SDS011;73393;51.946;20.140;2024-01-30T12:55:34;13.13;;;6.87;;
83465;SDS011;73393;51.946;20.140;2024-01-30T12:57:59;10.57;;;6.60;;
83465;SDS011;73393;51.946;20.140;2024-01-30T13:00:25;13.67;;;7.77;;
83465;SDS011;73393;51.946;20.140;2024-01-30T13:02:51;15.33;;;8.83;;
83465;SDS011;73393;51.946;20.140;2024-01-30T13:05:16;14.53;;;5.97;;
83465;SDS011;73393;51.946;20.140;2024-01-30T13:07:43;12.07;;;6.10;;
83465;SDS011;73393;51.946;20.140;2024-01-30T13:10:09;16.20;;;10.03;;
83465;SDS011;73393;51.946;20.140;2024-01-30T13:12:35;15.67;;;8.60;;
83465;SDS011;73393;51.946;20.140;2024-01-30T13:15:02;15.97;;;9.10;;
83465;SDS011;73393;51.946;20.140;2024-01-30T13:17:29;20.00;;;9.50;;
83465;SDS011;73393;51.946;20.140;2024-01-30T13:19:55;14.33;;;9.20;;
83465;SDS011;73393;51.946;20.140;2024-01-30T13:22:21;12.43;;;7.60;;
83465;SDS011;73393;51.946;20.140;2024-01-30T13:24:46;15.53;;;8.23;;
83465;SDS011;73393;51.946;20.140;2024-01-30T13:27:12;12.87;;;7.53;;
83465;SDS011;73393;51.946;20.140;2024-01-30T13:29:38;13.07;;;7.87;;
83465;SDS011;73393;51.946;20.140;2024-01-30T13:32:04;14.63;;;7.37;;
83465;SDS011;73393;51.946;20.140;2024-01-30T13:34:29;18.73;;;9.10;;
83465;SDS011;73393;51.946;20.140;2024-01-30T13:36:55;19.10;;;7.17;;
83465;SDS011;73393;51.946;20.140;2024-01-30T13:39:21;13.60;;;7.70;;
83465;SDS011;73393;51.946;20.140;2024-01-30T13:41:46;15.30;;;10.80;;
83465;SDS011;73393;51.946;20.140;2024-01-30T13:44:13;13.93;;;8.33;;
83465;SDS011;73393;51.946;20.140;2024-01-30T13:46:41;10.03;;;6.40;;
83465;SDS011;73393;51.946;20.140;2024-01-30T13:49:06;10.83;;;6.20;;
83465;SDS011;73393;51.946;20.140;2024-01-30T13:51:32;13.43;;;7.93;;
83465;SDS011;73393;51.946;20.140;2024-01-30T13:53:58;23.83;;;8.97;;
83465;SDS011;73393;51.946;20.140;2024-01-30T13:56:23;12.17;;;7.23;;
83465;SDS011;73393;51.946;20.140;2024-01-30T13:58:49;14.70;;;7.33;;
83465;SDS011;73393;51.946;20.140;2024-01-30T14:01:15;14.00;;;7.77;;
83465;SDS011;73393;51.946;20.140;2024-01-30T14:03:41;15.17;;;8.70;;
83465;SDS011;73393;51.946;20.140;2024-01-30T14:06:07;15.37;;;8.80;;
83465;SDS011;73393;51.946;20.140;2024-01-30T14:08:33;16.47;;;8.97;;
83465;SDS011;73393;51.946;20.140;2024-01-30T14:10:58;15.77;;;10.17;;